Terminal Aerodrome Forecast
Issued by NWS Knoxville/Tri Cities, TN

Home | Current Version | Previous Version | Text Only | Print | Product List | Glossary On
Versions: 1 2 3 4 5 6 7 8 9 10 11 12 13 14 15 16 17 18 19 20 21 22 23 24 25 26 27 28
000
FTUS44 KMRX 021125
TAFCHA
TAF
KCHA 021125Z 0212/0312 20004KT P6SM SCT050 BKN090
     FM021700 22008KT P6SM VCTS BKN040CB BKN150
      TEMPO 0219/0223 3SM SHRA BR BKN035 OVC080
     FM030100 22008KT 4SM SHRA BR BKN020 OVC060
     FM030500 VRB05KT P6SM VCSH OVC015=

USA.gov is the U.S. government's official web portal to all federal, state and local government web resources and services.